Accueil
METAR-TAF:

METAR-TAF

Aéroports :

Istres, France

Base aérienne 125 Istres-Le Tubé

latitude: 43-31N, longitude: 004-56E, altitude: 23 m

Observation

Le bulletin a été fait il y a 3 heures et 3 minutes, à 21:00 UTC
Vent 3 kt de sud/sud-est
Température 21°C
Humidité 53%
Pression 1019 hPa
Visibilité 10 km ou plus
pas de nuages en-dessous de 1500 mètres et pas de cumulonimbus.

METAR: LFMI 282100Z 15003KT CAVOK 21/11 Q1019 NOSIG

Heure: 02:03 (00:03 UTC)

Prévision

Le bulletin a été fait il y a 2 heures et 53 minutes, à 21:10 UTC
Prévision valable du 28 à 21 UTC au 29 à 21 UTC
Vent 5 kt de direction variable
Visibilité 10 km ou plus
pas de nuages en-dessous de 1500 mètres et pas de cumulonimbus.

TAF: LFMI 282110Z 2821/2921 VRB05KT CAVOK

Observations et prévisions météorologiques de plus de 4000 aéroports (messages METAR et TAF).

Les stations disponibles sont représentées par des disques jaunes et rouges sur la carte.

Passer la souris dessus pour voir le nom de la station.

Cliquer dessus pour voir les observations et prévisions météorologiques.

Pour changer de carte: cliquez sur les boutons verts avec une croix noire pour zoomer, sur le bouton vert avec un tiret pour effectuer un zoom arrière, ou sur les flèches vertes pour les cartes adjacentes.


METAR-TAF: